Time;durP1;ratioP1;P1;durP2;ratioP2;P2;SDS_P1;SDS_P2;PMS_P1;PMS_P2;Temp;Humidity;BMP_temperature;BMP_pressure;BME280_temperature;BME280_humidity;BME280_pressure;Samples;Min_cycle;Max_cycle;Signal;HPM_P1;HPM_P2
2022/04/07 00:00:09;;;;;;;0.00;0.00;;;11.20;99.90;;;;;;5031016;28;20032;-61
2022/04/07 00:02:34;;;;;;;0.00;0.00;;;11.20;99.90;;;;;;5031014;28;20041;-61
2022/04/07 00:05:00;;;;;;;0.00;0.00;;;11.10;99.90;;;;;;5032383;28;20117;-61
2022/04/07 00:07:26;;;;;;;0.00;0.00;;;11.10;99.90;;;;;;5031781;28;20143;-60
2022/04/07 00:09:52;;;;;;;0.00;0.00;;;11.00;99.90;;;;;;5032218;28;20037;-61
2022/04/07 00:12:18;;;;;;;0.00;0.00;;;10.90;99.90;;;;;;5032160;28;20071;-61
2022/04/07 00:14:43;;;;;;;0.10;0.10;;;10.90;99.90;;;;;;5031126;28;20033;-60
2022/04/07 00:17:09;;;;;;;0.20;0.20;;;10.80;99.90;;;;;;5031777;28;20032;-61
2022/04/07 00:19:35;;;;;;;0.35;0.35;;;10.80;99.90;;;;;;5031603;28;20081;-60
2022/04/07 00:22:01;;;;;;;0.00;0.00;;;10.80;99.90;;;;;;5013911;28;20040;-61
2022/04/07 00:24:27;;;;;;;0.00;0.00;;;10.80;99.90;;;;;;5014050;28;20049;-61
2022/04/07 00:26:52;;;;;;;0.00;0.00;;;10.80;99.90;;;;;;5032125;28;20021;-61
2022/04/07 00:29:19;;;;;;;0.75;0.40;;;10.80;99.90;;;;;;5031855;28;20560;-61
2022/04/07 00:31:45;;;;;;;0.35;0.35;;;10.70;99.90;;;;;;5031893;28;20034;-61
2022/04/07 00:34:11;;;;;;;0.10;0.10;;;10.70;99.90;;;;;;5031237;28;20075;-61
2022/04/07 00:36:39;;;;;;;0.15;0.15;;;10.60;99.90;;;;;;5031249;28;20060;-61
2022/04/07 00:39:04;;;;;;;0.00;0.00;;;10.60;99.90;;;;;;5031418;28;20025;-61
2022/04/07 00:41:30;;;;;;;0.00;0.00;;;10.60;99.90;;;;;;5031657;28;20151;-61
2022/04/07 00:43:56;;;;;;;1.65;1.55;;;10.60;99.90;;;;;;5031458;28;20397;-61
2022/04/07 00:46:21;;;;;;;1.80;0.52;;;10.60;99.90;;;;;;5031195;28;20460;-61
2022/04/07 00:48:47;;;;;;;0.00;0.00;;;10.60;99.90;;;;;;5031383;28;20041;-61
2022/04/07 00:51:13;;;;;;;0.10;0.10;;;10.60;99.90;;;;;;5046152;22;20037;-65
2022/04/07 00:53:39;;;;;;;0.00;0.00;;;10.60;99.90;;;;;;5003718;28;20069;-65
2022/04/07 00:56:07;;;;;;;0.05;0.05;;;10.50;99.90;;;;;;4991828;28;20368;-65
2022/04/07 00:58:34;;;;;;;0.00;0.00;;;10.50;99.90;;;;;;4990331;28;20030;-66
2022/04/07 01:01:00;;;;;;;0.00;0.00;;;10.50;99.90;;;;;;4990415;28;20026;-65
2022/04/07 01:03:26;;;;;;;0.40;0.40;;;10.50;99.90;;;;;;4991466;28;20117;-65
2022/04/07 01:05:52;;;;;;;0.00;0.00;;;10.50;99.90;;;;;;4988507;28;20113;-66
2022/04/07 01:08:18;;;;;;;0.00;0.00;;;10.40;99.90;;;;;;5002876;28;20064;-65
2022/04/07 01:10:45;;;;;;;0.00;0.00;;;10.50;99.90;;;;;;4977362;28;20037;-65
2022/04/07 01:13:12;;;;;;;0.00;0.00;;;10.50;99.90;;;;;;4993630;28;20113;-65
2022/04/07 01:15:38;;;;;;;0.00;0.00;;;10.40;99.90;;;;;;5004749;28;20026;-65
2022/04/07 01:18:05;;;;;;;0.00;0.00;;;10.40;99.90;;;;;;4973835;28;20030;-66
2022/04/07 01:20:31;;;;;;;0.00;0.00;;;10.40;99.90;;;;;;4974089;28;20034;-65
2022/04/07 01:22:57;;;;;;;0.00;0.00;;;10.40;99.90;;;;;;4991625;28;20482;-65
2022/04/07 01:25:26;;;;;;;0.30;0.30;;;10.30;99.90;;;;;;5007476;28;20100;-66
2022/04/07 01:27:53;;;;;;;0.00;0.00;;;10.30;99.90;;;;;;5010329;28;20029;-65
2022/04/07 01:30:20;;;;;;;0.00;0.00;;;10.30;99.90;;;;;;5011508;28;20037;-65
2022/04/07 01:32:58;;;;;;;0.10;0.10;;;10.30;99.90;;;;;;4993273;28;20033;-65
2022/04/07 01:35:24;;;;;;;0.08;0.08;;;10.40;99.90;;;;;;5010929;28;20039;-66
2022/04/07 01:37:52;;;;;;;0.00;0.00;;;10.40;99.90;;;;;;4993298;28;20466;-65
2022/04/07 01:40:25;;;;;;;0.00;0.00;;;10.40;99.90;;;;;;4993633;28;20438;-65
2022/04/07 01:42:52;;;;;;;0.00;0.00;;;10.40;99.90;;;;;;4990051;28;20026;-65
2022/04/07 01:45:20;;;;;;;0.00;0.00;;;10.40;99.90;;;;;;4991057;28;20052;-68
2022/04/07 01:47:46;;;;;;;0.00;0.00;;;10.40;99.90;;;;;;4973436;28;20026;-65
2022/04/07 01:50:13;;;;;;;0.00;0.00;;;10.40;99.90;;;;;;4973946;28;20080;-66
2022/04/07 01:52:41;;;;;;;0.00;0.00;;;10.40;99.90;;;;;;4990981;28;20031;-65
2022/04/07 01:55:08;;;;;;;0.63;0.63;;;10.40;99.90;;;;;;4991090;28;20026;-65
2022/04/07 01:57:34;;;;;;;0.00;0.00;;;10.50;99.90;;;;;;4991170;28;20026;-65
2022/04/07 02:00:03;;;;;;;0.00;0.00;;;10.50;99.90;;;;;;4973837;28;20082;-66
2022/04/07 02:02:29;;;;;;;0.15;0.10;;;10.50;99.90;;;;;;4991026;28;20034;-66
2022/04/07 02:04:59;;;;;;;0.08;0.08;;;10.40;99.90;;;;;;4991408;28;20117;-66
2022/04/07 02:07:31;;;;;;;0.00;0.00;;;10.40;99.90;;;;;;4990735;28;20034;-66
2022/04/07 02:09:59;;;;;;;0.00;0.00;;;10.40;99.90;;;;;;4973858;28;20058;-66
2022/04/07 02:12:29;;;;;;;0.00;0.00;;;10.30;99.90;;;;;;4973013;28;20066;-66
2022/04/07 02:14:59;;;;;;;0.00;0.00;;;10.40;99.90;;;;;;4976534;28;20030;-66
2022/04/07 02:17:26;;;;;;;0.00;0.00;;;10.30;99.90;;;;;;4993382;28;20057;-65
2022/04/07 02:19:56;;;;;;;0.00;0.00;;;10.30;99.90;;;;;;5010797;28;20033;-67
2022/04/07 02:22:22;;;;;;;0.00;0.00;;;10.40;99.90;;;;;;5010008;28;20037;-66
2022/04/07 02:24:48;;;;;;;0.35;0.35;;;10.30;99.90;;;;;;4992814;28;20026;-66
2022/04/07 02:27:15;;;;;;;0.00;0.00;;;10.30;99.90;;;;;;5009974;28;20037;-66
2022/04/07 02:29:42;;;;;;;0.00;0.00;;;10.40;99.90;;;;;;4992757;28;20105;-66
2022/04/07 02:32:11;;;;;;;0.15;0.15;;;10.40;99.90;;;;;;5010010;28;20030;-66
2022/04/07 02:34:38;;;;;;;0.00;0.00;;;10.40;99.90;;;;;;4993248;28;20684;-66
2022/04/07 02:37:04;;;;;;;0.00;0.00;;;10.40;99.90;;;;;;4992384;28;20034;-66
2022/04/07 02:39:30;;;;;;;0.00;0.00;;;10.40;99.90;;;;;;5012985;28;20505;-66
2022/04/07 02:41:55;;;;;;;0.00;0.00;;;10.40;99.90;;;;;;4996469;28;20042;-66
2022/04/07 02:44:30;;;;;;;0.00;0.00;;;10.40;99.90;;;;;;4996826;28;20057;-66
2022/04/07 02:46:58;;;;;;;0.10;0.10;;;10.40;99.90;;;;;;4997754;28;20445;-66
2022/04/07 02:49:24;;;;;;;0.32;0.32;;;10.40;99.90;;;;;;5013985;28;20033;-66
2022/04/07 02:51:50;;;;;;;0.25;0.25;;;10.40;99.90;;;;;;5013308;28;20472;-66
2022/04/07 02:54:16;;;;;;;0.22;0.22;;;10.40;99.90;;;;;;5013517;28;20046;-66
2022/04/07 02:56:41;;;;;;;0.00;0.00;;;10.40;99.90;;;;;;5013313;28;20030;-66
2022/04/07 02:59:07;;;;;;;0.00;0.00;;;10.40;99.90;;;;;;5013625;28;20613;-66
2022/04/07 03:01:33;;;;;;;0.00;0.00;;;10.40;99.90;;;;;;5013264;28;20034;-66
2022/04/07 03:03:59;;;;;;;0.00;0.00;;;10.40;99.90;;;;;;5004589;28;20022;-66
2022/04/07 03:06:25;;;;;;;0.00;0.00;;;10.30;99.90;;;;;;5001140;28;20098;-66
2022/04/07 03:08:51;;;;;;;0.00;0.00;;;10.30;99.90;;;;;;4990734;28;20025;-66
2022/04/07 03:11:17;;;;;;;0.00;0.00;;;10.40;99.90;;;;;;4992644;28;20061;-66
2022/04/07 03:13:43;;;;;;;0.00;0.00;;;10.40;99.90;;;;;;4993727;28;20058;-66
2022/04/07 03:16:09;;;;;;;0.10;0.10;;;10.40;99.90;;;;;;5003592;28;20745;-66
2022/04/07 03:18:35;;;;;;;0.00;0.00;;;10.40;99.90;;;;;;5012918;28;20072;-66
2022/04/07 03:21:01;;;;;;;0.00;0.00;;;10.40;99.90;;;;;;4995704;28;20490;-66
2022/04/07 03:23:27;;;;;;;0.00;0.00;;;10.40;99.90;;;;;;4995448;28;20041;-66
2022/04/07 03:25:53;;;;;;;0.00;0.00;;;10.40;99.90;;;;;;4993495;28;20061;-66
2022/04/07 03:28:19;;;;;;;0.00;0.00;;;10.40;99.90;;;;;;4993211;28;20137;-66
2022/04/07 03:30:45;;;;;;;0.10;0.10;;;10.40;99.90;;;;;;4976132;28;20113;-67
2022/04/07 03:33:11;;;;;;;0.00;0.00;;;10.40;99.90;;;;;;4975882;28;20037;-66
2022/04/07 03:35:37;;;;;;;0.00;0.00;;;10.30;99.90;;;;;;4993767;28;20022;-66
2022/04/07 03:38:07;;;;;;;0.00;0.00;;;10.30;99.90;;;;;;4992714;28;20120;-65
2022/04/07 03:40:34;;;;;;;0.00;0.00;;;10.40;99.90;;;;;;4976236;28;20023;-66
2022/04/07 03:43:01;;;;;;;1.13;0.52;;;10.40;99.90;;;;;;4993156;28;20030;-65
2022/04/07 03:45:27;;;;;;;0.00;0.00;;;10.40;99.90;;;;;;5012643;28;20113;-65
2022/04/07 03:47:53;;;;;;;0.20;0.20;;;10.50;99.90;;;;;;5012218;28;20113;-65
2022/04/07 03:50:19;;;;;;;0.00;0.00;;;10.50;99.90;;;;;;5003051;28;20517;-66
2022/04/07 03:52:44;;;;;;;0.00;0.00;;;10.60;99.90;;;;;;5000853;28;20034;-66
2022/04/07 03:55:10;;;;;;;0.00;0.00;;;10.60;99.90;;;;;;5012160;28;20029;-65
2022/04/07 03:57:36;;;;;;;0.00;0.00;;;10.50;99.90;;;;;;5002878;28;20368;-64
2022/04/07 04:00:04;;;;;;;0.00;0.00;;;10.50;99.90;;;;;;5011437;28;20097;-65
2022/04/07 04:02:30;;;;;;;0.00;0.00;;;10.50;99.90;;;;;;5011198;28;20110;-65
2022/04/07 04:04:56;;;;;;;0.00;0.00;;;10.50;99.90;;;;;;5011575;28;20486;-65
2022/04/07 04:07:22;;;;;;;0.00;0.00;;;10.50;99.90;;;;;;5011959;28;20053;-65
2022/04/07 04:09:48;;;;;;;0.00;0.00;;;10.50;99.90;;;;;;5011118;28;20054;-67
2022/04/07 04:12:14;;;;;;;0.00;0.00;;;10.50;99.90;;;;;;4994409;28;20034;-67
2022/04/07 04:14:39;;;;;;;0.00;0.00;;;10.60;99.90;;;;;;5011929;28;20036;-68
2022/04/07 04:17:05;;;;;;;0.00;0.00;;;10.60;99.90;;;;;;4974767;28;20030;-68
2022/04/07 04:19:33;;;;;;;0.00;0.00;;;10.60;99.90;;;;;;4992459;28;20034;-67
2022/04/07 04:21:59;;;;;;;0.00;0.00;;;10.60;99.90;;;;;;4993315;28;20080;-68
2022/04/07 04:24:25;;;;;;;0.00;0.00;;;10.60;99.90;;;;;;4994551;28;20036;-67
2022/04/07 04:26:51;;;;;;;0.00;0.00;;;10.70;99.90;;;;;;5011736;28;20025;-68
2022/04/07 04:29:16;;;;;;;0.00;0.00;;;10.60;99.90;;;;;;4994202;28;20029;-68
2022/04/07 04:31:42;;;;;;;0.00;0.00;;;10.60;99.90;;;;;;4997679;28;20381;-69
2022/04/07 04:34:08;;;;;;;0.20;0.20;;;10.60;99.90;;;;;;5031037;28;20108;-68
2022/04/07 04:36:35;;;;;;;0.00;0.00;;;10.60;99.90;;;;;;5031145;28;20031;-68
2022/04/07 04:39:01;;;;;;;0.00;0.00;;;10.60;99.90;;;;;;5031479;28;20437;-68
2022/04/07 04:41:26;;;;;;;0.00;0.00;;;10.60;99.90;;;;;;5031483;28;20033;-68
2022/04/07 04:43:54;;;;;;;0.00;0.00;;;10.60;99.90;;;;;;5031444;28;20496;-69
2022/04/07 04:46:20;;;;;;;0.00;0.00;;;10.50;99.90;;;;;;5031083;28;20029;-67
2022/04/07 04:48:46;;;;;;;0.00;0.00;;;10.50;99.90;;;;;;5031362;28;20056;-67
2022/04/07 04:51:15;;;;;;;0.00;0.00;;;10.50;99.90;;;;;;5030741;28;20053;-69
2022/04/07 04:53:40;;;;;;;0.00;0.00;;;10.50;99.90;;;;;;5031508;28;20503;-68
2022/04/07 04:56:06;;;;;;;0.00;0.00;;;10.40;99.90;;;;;;5030835;28;20025;-68
2022/04/07 04:58:32;;;;;;;0.00;0.00;;;10.40;99.90;;;;;;5013128;28;20443;-68
2022/04/07 05:00:58;;;;;;;0.00;0.00;;;10.30;99.90;;;;;;5025562;28;21427;-69
2022/04/07 05:03:23;;;;;;;0.00;0.00;;;10.30;99.90;;;;;;4961958;28;20426;-68
2022/04/07 05:05:49;;;;;;;0.00;0.00;;;10.30;99.90;;;;;;4991574;28;20068;-68
2022/04/07 05:08:15;;;;;;;0.00;0.00;;;10.30;99.90;;;;;;4958451;28;20042;-69
2022/04/07 05:10:41;;;;;;;0.00;0.00;;;10.30;99.90;;;;;;4991470;28;20030;-68
2022/04/07 05:13:07;;;;;;;0.20;0.20;;;10.30;99.90;;;;;;4990244;28;20494;-68
2022/04/07 05:15:35;;;;;;;0.00;0.00;;;10.40;99.90;;;;;;4989702;28;20372;-68
2022/04/07 05:18:01;;;;;;;0.00;0.00;;;10.40;99.90;;;;;;4991269;28;20562;-66
2022/04/07 05:20:27;;;;;;;0.03;0.03;;;10.50;99.90;;;;;;4991747;28;20110;-67
2022/04/07 05:22:53;;;;;;;0.38;0.38;;;10.50;99.90;;;;;;4991174;28;20034;-67
2022/04/07 05:25:19;;;;;;;0.00;0.00;;;10.50;99.90;;;;;;4990364;28;20127;-66
2022/04/07 05:27:45;;;;;;;0.00;0.00;;;10.50;99.90;;;;;;4989562;28;20049;-66
2022/04/07 05:30:18;;;;;;;0.00;0.00;;;10.50;99.90;;;;;;4973675;28;20030;-66
2022/04/07 05:32:45;;;;;;;0.00;0.00;;;10.50;99.90;;;;;;4974031;28;20523;-66
2022/04/07 05:35:13;;;;;;;0.00;0.00;;;10.40;99.90;;;;;;4974012;28;20088;-66
2022/04/07 05:37:40;;;;;;;0.00;0.00;;;10.40;99.90;;;;;;4990602;28;20537;-66
2022/04/07 05:40:10;;;;;;;0.00;0.00;;;10.40;99.90;;;;;;4973792;28;20080;-69
2022/04/07 05:42:36;;;;;;;0.10;0.10;;;10.40;99.90;;;;;;4984042;28;20034;-68
2022/04/07 05:45:04;;;;;;;0.08;0.08;;;10.50;99.90;;;;;;4989803;28;20029;-68
2022/04/07 05:47:29;;;;;;;0.00;0.00;;;10.50;99.90;;;;;;4989948;28;20042;-68
2022/04/07 05:49:56;;;;;;;0.00;0.00;;;10.40;99.90;;;;;;4990024;28;20045;-69
2022/04/07 05:52:23;;;;;;;0.00;0.00;;;10.40;99.90;;;;;;4973329;28;20450;-68
2022/04/07 05:54:49;;;;;;;0.00;0.00;;;10.40;99.90;;;;;;4991130;28;20026;-69
2022/04/07 05:57:15;;;;;;;0.00;0.00;;;10.40;99.90;;;;;;4973209;28;20532;-69
2022/04/07 05:59:40;;;;;;;0.00;0.00;;;10.50;99.90;;;;;;4990055;28;20498;-69
2022/04/07 06:02:07;;;;;;;0.00;0.00;;;10.50;99.90;;;;;;4990569;28;20058;-69
2022/04/07 06:04:32;;;;;;;0.00;0.00;;;10.50;99.90;;;;;;4990781;28;20041;-69
2022/04/07 06:06:58;;;;;;;0.00;0.00;;;10.50;99.90;;;;;;4990659;28;20532;-69
2022/04/07 06:09:24;;;;;;;0.00;0.00;;;10.50;99.90;;;;;;4990858;28;20034;-68
2022/04/07 06:11:50;;;;;;;0.00;0.00;;;10.50;99.90;;;;;;4990445;28;20038;-68
2022/04/07 06:14:15;;;;;;;0.00;0.00;;;10.50;99.90;;;;;;4992646;28;20390;-69
2022/04/07 06:16:41;;;;;;;0.00;0.00;;;10.50;99.90;;;;;;4993876;28;20050;-69
2022/04/07 06:19:07;;;;;;;0.00;0.00;;;10.50;99.90;;;;;;4994771;28;20548;-69
2022/04/07 06:21:33;;;;;;;0.00;0.00;;;10.50;99.90;;;;;;4993234;28;20030;-69
2022/04/07 06:23:59;;;;;;;0.00;0.00;;;10.50;99.90;;;;;;4994784;28;20030;-69
2022/04/07 06:26:25;;;;;;;0.00;0.00;;;10.50;99.90;;;;;;4994343;28;20080;-69
2022/04/07 06:28:51;;;;;;;0.00;0.00;;;10.50;99.90;;;;;;4993165;28;20118;-69
2022/04/07 06:31:17;;;;;;;0.00;0.00;;;10.50;99.90;;;;;;4993139;28;20125;-70
2022/04/07 06:33:43;;;;;;;0.00;0.00;;;10.50;99.90;;;;;;4994220;28;20088;-69
2022/04/07 06:36:09;;;;;;;0.00;0.00;;;10.50;99.90;;;;;;4994124;28;20034;-69
2022/04/07 06:38:35;;;;;;;0.00;0.00;;;10.50;99.90;;;;;;4976522;28;20031;-71
2022/04/07 06:41:03;;;;;;;0.38;0.38;;;10.60;99.90;;;;;;4992831;28;20030;-71
2022/04/07 06:43:29;;;;;;;0.00;0.00;;;10.60;99.90;;;;;;4994520;28;20029;-70
2022/04/07 06:45:55;;;;;;;0.00;0.00;;;10.60;99.90;;;;;;4993163;28;20034;-69
2022/04/07 06:48:21;;;;;;;0.00;0.00;;;10.60;99.90;;;;;;4993889;28;20037;-69
2022/04/07 06:50:46;;;;;;;0.00;0.00;;;10.50;99.90;;;;;;4994247;28;20161;-69
2022/04/07 06:53:12;;;;;;;1.02;0.85;;;10.50;99.90;;;;;;4988838;23;20050;-60
2022/04/07 06:55:43;;;;;;;0.00;0.00;;;10.40;99.90;;;;;;4979279;28;20073;-61
2022/04/07 06:58:10;;;;;;;0.00;0.00;;;10.40;99.90;;;;;;4973708;28;20037;-60
2022/04/07 07:00:43;;;;;;;0.28;0.28;;;10.30;99.90;;;;;;4976567;28;20034;-61
2022/04/07 07:03:15;;;;;;;0.63;0.35;;;10.30;99.90;;;;;;4993877;28;20089;-61
2022/04/07 07:05:43;;;;;;;0.00;0.00;;;10.30;99.90;;;;;;4993932;28;20030;-61
2022/04/07 07:08:20;;;;;;;0.00;0.00;;;10.30;99.90;;;;;;4993265;28;20034;-61
2022/04/07 07:10:49;;;;;;;0.70;0.70;;;10.30;99.90;;;;;;4976602;28;20386;-61
2022/04/07 07:13:20;;;;;;;0.00;0.00;;;10.30;99.90;;;;;;4975984;28;20058;-61
2022/04/07 07:15:47;;;;;;;0.00;0.00;;;10.30;99.90;;;;;;4993763;28;20064;-61
2022/04/07 07:18:16;;;;;;;0.00;0.00;;;10.30;99.90;;;;;;4975693;28;20034;-60
2022/04/07 07:20:42;;;;;;;0.00;0.00;;;10.30;99.90;;;;;;4993265;28;20034;-61
2022/04/07 07:23:08;;;;;;;0.00;0.00;;;10.20;99.90;;;;;;4993550;28;20058;-61
2022/04/07 07:25:35;;;;;;;0.15;0.15;;;10.30;99.90;;;;;;4975677;28;20073;-61
2022/04/07 07:28:04;;;;;;;0.00;0.00;;;10.30;99.90;;;;;;4975750;28;20061;-61
2022/04/07 07:30:30;;;;;;;0.00;0.00;;;10.30;99.90;;;;;;4976344;28;20498;-61
2022/04/07 07:32:56;;;;;;;0.00;0.00;;;10.30;99.90;;;;;;4993376;28;20038;-61
2022/04/07 07:35:23;;;;;;;0.00;0.00;;;10.20;99.90;;;;;;4993313;28;20133;-61
2022/04/07 07:37:55;;;;;;;0.73;0.73;;;10.30;99.90;;;;;;4975527;28;20057;-61
2022/04/07 07:40:24;;;;;;;0.00;0.00;;;10.30;99.90;;;;;;4976642;28;20022;-61
2022/04/07 07:42:56;;;;;;;0.00;0.00;;;10.20;99.90;;;;;;4991879;28;20053;-61
2022/04/07 07:45:26;;;;;;;0.00;0.00;;;10.20;99.90;;;;;;4975679;28;20481;-61
2022/04/07 07:47:53;;;;;;;0.00;0.00;;;10.20;99.90;;;;;;4976098;28;20053;-61
2022/04/07 07:50:20;;;;;;;0.00;0.00;;;10.20;99.90;;;;;;4993367;28;20049;-61
2022/04/07 07:52:46;;;;;;;0.00;0.00;;;10.20;99.90;;;;;;4971955;28;20483;-61
2022/04/07 07:55:12;;;;;;;1.75;0.93;;;10.30;99.90;;;;;;4956794;28;20081;-61
2022/04/07 07:57:38;;;;;;;0.00;0.00;;;10.30;99.90;;;;;;4973333;28;20073;-61
2022/04/07 08:00:08;;;;;;;0.00;0.00;;;10.30;99.90;;;;;;4973242;28;20486;-61
2022/04/07 08:02:38;;;;;;;0.00;0.00;;;10.30;99.90;;;;;;4973008;28;20039;-60
2022/04/07 08:05:06;;;;;;;19.77;2.72;;;10.40;99.90;;;;;;4973627;28;20442;-60
2022/04/07 08:07:32;;;;;;;0.00;0.00;;;10.40;99.90;;;;;;4957414;28;20042;-61
2022/04/07 08:09:59;;;;;;;0.00;0.00;;;10.40;99.90;;;;;;4972195;28;20101;-61
2022/04/07 08:12:25;;;;;;;0.28;0.28;;;10.50;99.90;;;;;;4971696;28;20490;-61
2022/04/07 08:14:54;;;;;;;0.00;0.00;;;10.50;99.90;;;;;;4949149;28;20074;-61
2022/04/07 08:17:21;;;;;;;0.00;0.00;;;10.40;99.90;;;;;;4975536;28;20084;-61
2022/04/07 08:19:47;;;;;;;0.00;0.00;;;10.50;99.90;;;;;;4992351;28;20474;-60
2022/04/07 08:22:13;;;;;;;1.08;0.32;;;10.40;99.90;;;;;;4958832;28;20034;-61
2022/04/07 08:24:39;;;;;;;25.80;2.10;;;10.40;99.90;;;;;;4992095;28;20026;-61
2022/04/07 08:27:06;;;;;;;0.00;0.00;;;10.40;99.90;;;;;;4992334;28;20080;-61
2022/04/07 08:29:33;;;;;;;0.00;0.00;;;10.50;99.90;;;;;;4974525;28;20037;-60
2022/04/07 08:31:59;;;;;;;0.00;0.00;;;10.50;99.90;;;;;;4945983;28;20042;-61
2022/04/07 08:34:25;;;;;;;0.00;0.00;;;10.50;99.90;;;;;;4972678;28;20037;-60
2022/04/07 08:36:52;;;;;;;0.00;0.00;;;10.60;99.90;;;;;;4954607;28;20101;-60
2022/04/07 08:39:19;;;;;;;0.00;0.00;;;10.60;99.90;;;;;;4973099;28;20085;-60
2022/04/07 08:41:47;;;;;;;0.00;0.00;;;10.60;99.90;;;;;;4972509;28;20120;-61
2022/04/07 08:44:16;;;;;;;0.00;0.00;;;10.70;99.90;;;;;;4972344;28;20129;-60
2022/04/07 08:46:49;;;;;;;0.00;0.00;;;10.70;99.90;;;;;;4970879;28;20077;-60
2022/04/07 08:49:18;;;;;;;0.00;0.00;;;10.70;99.90;;;;;;4971559;28;20042;-60
2022/04/07 08:51:45;;;;;;;0.10;0.10;;;10.70;99.90;;;;;;4970787;28;20027;-61
2022/04/07 08:54:12;;;;;;;0.00;0.00;;;10.70;99.90;;;;;;4955299;28;20031;-61
2022/04/07 08:56:39;;;;;;;0.03;0.03;;;10.70;99.90;;;;;;4971931;28;20023;-61
2022/04/07 08:59:05;;;;;;;0.00;0.00;;;10.80;99.90;;;;;;4955348;28;20023;-61
2022/04/07 09:01:31;;;;;;;0.00;0.00;;;10.90;99.90;;;;;;4936544;28;20399;-61
2022/04/07 09:03:56;;;;;;;0.00;0.00;;;10.90;99.90;;;;;;4986672;28;20035;-61
2022/04/07 09:06:23;;;;;;;0.00;0.00;;;11.00;99.90;;;;;;4974082;28;20069;-61
2022/04/07 09:08:49;;;;;;;0.00;0.00;;;11.00;99.90;;;;;;4991654;28;20038;-61
2022/04/07 09:11:18;;;;;;;0.00;0.00;;;11.00;99.90;;;;;;4973937;28;20084;-61
2022/04/07 09:13:45;;;;;;;0.00;0.00;;;11.10;99.90;;;;;;4991451;28;20046;-61
2022/04/07 09:16:14;;;;;;;0.00;0.00;;;11.10;99.90;;;;;;5002537;28;20026;-61
2022/04/07 09:18:47;;;;;;;0.05;0.05;;;11.10;99.90;;;;;;4993879;28;20022;-61
2022/04/07 09:21:24;;;;;;;0.00;0.00;;;11.20;99.90;;;;;;4994468;28;20021;-61
2022/04/07 09:23:49;;;;;;;0.25;0.25;;;11.20;99.90;;;;;;4993948;28;20041;-61
2022/04/07 09:26:16;;;;;;;0.00;0.00;;;11.20;99.90;;;;;;4992861;28;20512;-61
2022/04/07 09:28:42;;;;;;;0.00;0.00;;;11.30;99.90;;;;;;5010825;28;20076;-61
2022/04/07 09:31:16;;;;;;;0.00;0.00;;;11.20;99.90;;;;;;4986873;28;20486;-61
2022/04/07 09:33:43;;;;;;;0.00;0.00;;;11.20;99.90;;;;;;4990081;28;20121;-61
2022/04/07 09:36:20;;;;;;;0.00;0.00;;;11.20;99.90;;;;;;4990743;28;20030;-61
2022/04/07 09:38:53;;;;;;;0.00;0.00;;;11.20;99.90;;;;;;4991263;28;20028;-61
2022/04/07 09:41:21;;;;;;;0.00;0.00;;;11.20;99.90;;;;;;4989919;28;20501;-61
2022/04/07 09:43:59;;;;;;;0.00;0.00;;;11.20;99.90;;;;;;4991305;28;20042;-61
2022/04/07 09:46:38;;;;;;;0.00;0.00;;;11.30;99.90;;;;;;4990859;28;20042;-61
2022/04/07 09:49:07;;;;;;;0.00;0.00;;;11.40;99.90;;;;;;4989890;28;20489;-61
2022/04/07 09:51:46;;;;;;;0.10;0.10;;;11.40;99.90;;;;;;4990832;28;20083;-62
2022/04/07 09:54:16;;;;;;;0.52;0.52;;;11.30;99.90;;;;;;4991131;28;20030;-61
2022/04/07 09:56:46;;;;;;;0.00;0.00;;;11.30;99.90;;;;;;4989285;28;20027;-61
2022/04/07 09:59:18;;;;;;;0.00;0.00;;;11.30;99.90;;;;;;5002485;28;20141;-61
2022/04/07 10:01:43;;;;;;;0.00;0.00;;;11.30;99.90;;;;;;4982682;28;20447;-61
2022/04/07 10:04:10;;;;;;;0.00;0.00;;;11.30;99.90;;;;;;4991001;28;20033;-61
2022/04/07 10:06:38;;;;;;;0.00;0.00;;;11.20;99.90;;;;;;4990745;28;20509;-61
2022/04/07 10:09:08;;;;;;;0.00;0.00;;;11.20;99.90;;;;;;4991219;28;20076;-62
2022/04/07 10:11:35;;;;;;;0.10;0.10;;;11.10;99.90;;;;;;4990417;28;20031;-62
2022/04/07 10:14:02;;;;;;;0.00;0.00;;;11.10;99.90;;;;;;4991036;28;20030;-62
2022/04/07 10:16:28;;;;;;;0.10;0.10;;;11.10;99.90;;;;;;4987499;28;20111;-62
2022/04/07 10:19:44;;;;;;;0.00;0.00;;;11.20;99.90;;;;;;4992752;28;20034;-62
2022/04/07 10:23:02;;;;;;;0.00;0.00;;;11.20;99.90;;;;;;4980524;28;20041;-62
2022/04/07 10:25:29;;;;;;;0.00;0.00;;;11.20;99.90;;;;;;4971036;28;20034;-63
2022/04/07 10:27:59;;;;;;;0.00;0.00;;;11.20;99.90;;;;;;4969533;28;20027;-64
2022/04/07 10:30:32;;;;;;;0.35;0.32;;;11.30;99.90;;;;;;4970336;28;20038;-62
2022/04/07 10:32:58;;;;;;;0.00;0.00;;;11.30;99.90;;;;;;4957393;28;20630;-62
2022/04/07 10:35:27;;;;;;;0.08;0.08;;;11.40;99.90;;;;;;4990707;28;20026;-62
2022/04/07 10:37:53;;;;;;;0.00;0.00;;;11.50;99.90;;;;;;4990773;28;20062;-62
2022/04/07 10:40:50;;;;;;;0.00;0.00;;;11.50;99.90;;;;;;4990647;28;20035;-63
2022/04/07 10:43:25;;;;;;;0.10;0.10;;;11.60;99.90;;;;;;4990369;28;20034;-61
2022/04/07 10:46:01;;;;;;;0.10;0.10;;;11.60;99.90;;;;;;4990122;28;20034;-63
2022/04/07 10:48:31;;;;;;;0.00;0.00;;;11.70;99.90;;;;;;4972759;28;20026;-62
2022/04/07 10:51:08;;;;;;;0.00;0.00;;;11.70;99.90;;;;;;4956815;28;20045;-62
2022/04/07 10:53:39;;;;;;;0.00;0.00;;;11.80;99.90;;;;;;4988756;28;20089;-63
2022/04/07 10:56:38;;;;;;;0.00;0.00;;;11.80;99.90;;;;;;4989367;28;20030;-62
2022/04/07 10:59:25;;;;;;;0.00;0.00;;;11.80;99.90;;;;;;4991035;28;20039;-65
2022/04/07 11:02:04;;;;;;;0.00;0.00;;;11.80;99.90;;;;;;4994097;28;20042;-63
2022/04/07 11:04:31;;;;;;;0.00;0.00;;;11.70;99.90;;;;;;4993802;28;20494;-64
2022/04/07 11:07:13;;;;;;;0.00;0.00;;;11.70;99.90;;;;;;4993310;28;20577;-63
2022/04/07 11:09:48;;;;;;;0.00;0.00;;;11.80;99.90;;;;;;4993380;28;20398;-63
2022/04/07 11:12:28;;;;;;;0.00;0.00;;;11.70;99.90;;;;;;4993467;28;20514;-63
2022/04/07 11:15:42;;;;;;;0.00;0.00;;;11.70;99.90;;;;;;4982594;28;20026;-63
2022/04/07 11:19:20;;;;;;;0.00;0.00;;;11.80;99.90;;;;;;5009075;28;20117;-63
2022/04/07 11:21:50;;;;;;;0.00;0.00;;;11.80;99.90;;;;;;4933060;29;20035;-63
2022/04/07 11:24:28;;;;;;;0.30;0.30;;;11.90;99.90;;;;;;4933398;29;20032;-63
2022/04/07 11:26:54;;;;;;;0.00;0.00;;;12.00;99.90;;;;;;4933009;29;20325;-63
2022/04/07 11:29:39;;;;;;;0.00;0.00;;;12.10;99.90;;;;;;4933023;29;20046;-64
2022/04/07 11:32:10;;;;;;;0.00;0.00;;;12.20;99.90;;;;;;4919142;29;20421;-64
2022/04/07 11:34:35;;;;;;;0.00;0.00;;;12.30;99.90;;;;;;4913497;29;20034;-64
2022/04/07 11:37:14;;;;;;;0.00;0.00;;;12.40;99.90;;;;;;4913167;29;20032;-63
2022/04/07 11:39:44;;;;;;;0.10;0.10;;;12.50;99.90;;;;;;4913507;29;20040;-63
2022/04/07 11:42:11;;;;;;;0.00;0.00;;;12.60;99.90;;;;;;4913912;29;20036;-63
2022/04/07 11:44:36;;;;;;;0.00;0.00;;;12.70;99.90;;;;;;4913293;29;20492;-63
2022/04/07 11:47:03;;;;;;;0.35;0.35;;;12.80;99.90;;;;;;4913446;29;20051;-63
2022/04/07 11:49:29;;;;;;;0.00;0.00;;;12.90;99.90;;;;;;4913487;29;20040;-63
2022/04/07 11:51:56;;;;;;;0.00;0.00;;;12.90;99.90;;;;;;4931004;28;20137;-63
2022/04/07 11:54:22;;;;;;;0.00;0.00;;;13.00;99.90;;;;;;4992995;28;20109;-64
2022/04/07 11:56:50;;;;;;;0.00;0.00;;;13.10;99.90;;;;;;4991107;28;20030;-63
2022/04/07 11:59:17;;;;;;;0.00;0.00;;;13.20;99.90;;;;;;4991452;28;20052;-63
2022/04/07 12:01:46;;;;;;;0.00;0.00;;;13.20;99.90;;;;;;4992938;28;20037;-63
2022/04/07 12:04:14;;;;;;;2.03;1.02;;;13.20;99.90;;;;;;4974896;28;20040;-63
2022/04/07 12:06:46;;;;;;;0.00;0.00;;;13.20;99.90;;;;;;4980933;28;20034;-63
2022/04/07 12:09:13;;;;;;;0.00;0.00;;;13.20;99.90;;;;;;4993058;28;20045;-63
2022/04/07 12:11:40;;;;;;;0.00;0.00;;;13.20;99.90;;;;;;5007668;28;20026;-63
2022/04/07 12:14:11;;;;;;;0.20;0.20;;;13.20;99.90;;;;;;4975182;28;20034;-63
2022/04/07 12:16:46;;;;;;;0.75;0.75;;;13.30;99.90;;;;;;4959605;28;20067;-64
2022/04/07 12:19:13;;;;;;;0.00;0.00;;;13.40;99.90;;;;;;4992640;28;20038;-63
2022/04/07 12:21:57;;;;;;;0.00;0.00;;;13.60;99.90;;;;;;4975086;28;20040;-63
2022/04/07 12:24:27;;;;;;;0.00;0.00;;;13.60;99.90;;;;;;4991094;28;20370;-63
2022/04/07 12:26:55;;;;;;;0.00;0.00;;;13.60;99.90;;;;;;4992014;28;20030;-63
2022/04/07 12:29:34;;;;;;;0.00;0.00;;;13.70;99.90;;;;;;4991870;28;20038;-63
2022/04/07 12:32:18;;;;;;;0.00;0.00;;;13.90;99.90;;;;;;4992391;28;20030;-63
2022/04/07 12:34:50;;;;;;;0.00;0.00;;;14.00;99.90;;;;;;4991964;28;20125;-63
2022/04/07 12:37:43;;;;;;;0.00;0.00;;;14.10;99.90;;;;;;4992526;28;20092;-63
2022/04/07 12:40:15;;;;;;;0.10;0.10;;;14.10;99.90;;;;;;4975868;28;20034;-62
2022/04/07 12:42:55;;;;;;;0.00;0.00;;;14.20;99.90;;;;;;4992090;28;20031;-62
2022/04/07 12:45:21;;;;;;;0.00;0.00;;;14.30;99.90;;;;;;4991739;28;20026;-63
2022/04/07 12:48:00;;;;;;;0.00;0.00;;;14.20;99.90;;;;;;4991499;28;20395;-63
2022/04/07 12:50:27;;;;;;;0.00;0.00;;;14.20;99.90;;;;;;4991988;28;20044;-63
2022/04/07 12:52:53;;;;;;;0.00;0.00;;;14.20;99.90;;;;;;5016896;23;20088;-70
2022/04/07 12:55:19;;;;;;;0.00;0.00;;;14.20;99.90;;;;;;5002436;28;20482;-69